Piedmont, KS

10:03 AM CDT on July 12, 2014 (GMT -0500)
Strother (KWLD) Elev 1158 ft | 37.17 °N, 97.04 °W | Change Station

Current weather conditions updated 9 minutes ago

Clear
Clear
83 °F
Feels Like 86 °F
N
16
Wind Variable Wind from SW

Today is forecast to be Warmer than yesterday.

Today
High -- | Low -- °F
--% Chance of Precip.
Yesterday
High -- | Low -- °F
Precip. -- in
6:14 AM 8:48 PM
Full, 100% visible
Pressure 30.08 in
Visibility 10.0 miles
Clouds Clear
Heat Index 86 °F
Dew Point 68 °F
Humidity 60%
Rainfall 0.00 in
Snow Depth Not available.
UV 5 out of 12
Pollen 4.50 out of 12
Air Quality Not available.
Flu Activity No Activity
METAR KWLD 121454Z AUTO 22014KT 10SM CLR 28/20 A3011 RMK AO2 SLP184 T02830200 51007

More Conditions Fewer Conditions

Pressure 30.08 in
Visibility 10.0 miles
Clouds Clear
Heat Index 86 °F
Dew Point 68 °F
Humidity 60%
Rainfall 0.00 in
Snow Depth Not available.
UV 5 out of 12
Pollen 4.50 out of 12
Air Quality Not available.
Flu Activity No Activity
METAR KWLD 121454Z AUTO 22014KT 10SM CLR 28/20 A3011 RMK AO2 SLP184 T02830200 51007

More Conditions Fewer Conditions

10-Day Weather Forecast

Almanac

Astronomy

Jul. 12, 2014 Rise Set
Actual Time 6:14 AM CDT 8:48 PM CDT
Civil Twilight 5:43 AM CDT 9:18 PM CDT
Nautical Twilight 5:05 AM CDT 9:56 PM CDT
Astronomical Twilight 4:23 AM CDT 10:38 PM CDT
Moon 8:53 PM CDT 6:33 AM CDT
Length of Visible Light 15h 35m
Length of Day
14h 34m
Tomorrow will be 1m 6s shorter.
Full, 100% of the Moon is Illuminated
Today
Full
Jul 18
Last Quarter
Jul 26
New
Aug 3
First Quarter
Aug 10
Full

Today's Extremes

State Highs State Lows

Community

WunderPhotos

Upload Photos

1,732,848 photos uploaded!

WunderBlogs® & News

By Dr. Jeff Masters
Director of Meteorology, Weather Underground
By Kari Strenfel
Meteorologist, Weather Underground
By Christopher C. Burt
Weather Historian, Weather Underground
July 12, 2014
July 12, 2014
July 12, 2014

Nearby

Snow Depth

Station Depth Elevation
No new snow has been reported.

Earthquake Activity

City Distance Mag. Time & Date
Stillwater, Oklahoma 111 miles 2.5 7:38 PM CDT
2014-07-06
Cherokee, Oklahoma 108 miles 2.8 10:43 AM CDT
2014-07-06
Medford, Oklahoma 102 miles 3.1 10:22 AM CDT
2014-07-06
Medford, Oklahoma 96 miles 3.2 11:10 PM CDT
2014-07-05
Minimum magnitude displayed is 2.5.

Coastal Water Temperatures

Place Temperature
No Stations Reporting

Nearby Weather Stations

Station Location Temp. Heat Index Dew Point Humidity Wind Precip. Elev Updated Type
HADS FALL RIVER LAKE NEAR FALL RIVER KS, Fall River, KS 81 °F 85 °F 72 °F 73% SSW  at  9 mph 0.00 in / hr 1020 ft 9:00 AM CDT MADIS
Atlanta Weather, Atlanta, KS 84.6 °F 88 °F 68 °F 57% NNW  at  4.7 mph - / hr 1447 ft 9:56 AM CDT Normal

Show More Stations Show Fewer Stations